Historyczne dane pomiarowe

Dodano dane terminowe – wersja testowa.

Dane z okresu 1951-2019

Wersja bazy: 1.34 [2019-03-16, lista zmian], aktualizacja planowana na 2019-04-15

Dane meteo z obszaru Polski uzyskane na podstawie danych udostępnionych przez Instytut Meteorologii i Gospodarki Wodnej – Państwowy Instytut Badawczy.

 

Wybierz Datę:    

       

TemperaturaWilgotnośćWiatrCiśnienieOpadyŚniegCzas trwania zjawisk
 Stacja t tx tn tng RH VA  wxwx mslp ppp RRR   cm mm wxwxwxwxwxwxwx
1994-08-14 13.8 17.3 11.2 10.1 73.8- 6.3 5.0---- 0.0------------
1994-08-13 16.8 23.0 11.5 9.5 82.0- 7.7 4.0---- 8.8------------
1994-08-12 18.8 24.6 12.3 11.1 68.5- 6.7 2.7---- 0.0------------
1994-08-11 19.2 24.6 13.6 10.6 63.0- 6.3 3.0---- 0.0------------
1994-08-10 19.6 26.1 14.1 13.2 72.8- 5.3 3.0---- 0.0------------
1994-08-09 17.2 21.7 13.6 11.3 93.5- 7.3 1.7---- 13.4------------
1994-08-08 19.6 24.1 16.5 14.1 75.3- 7.3 0.7---- 1.2------------
1994-08-07 23.3 28.5 17.0 14.5 65.8- 2.7 2.3---- 0.0------------
1994-08-06 25.9 34.2 16.1 13.6 51.5- 2.7 2.7---- 0.0------------
1994-08-05 25.7 32.6 16.6 14.3 60.8- 4.0 2.0---- 0.0------------
1994-08-04 23.7 30.1 17.1 15.9 73.0- 6.0 1.7---- 0.0------------
1994-08-03 24.0 28.6 20.0 18.2 71.3- 7.0 4.3---- 0.9------------
1994-08-02 27.3 34.5 18.1 16.1 53.3- 5.3 2.0---- 0.0------------
1994-08-01 26.6 35.8 17.1 15.1 51.5- 5.0 3.0---- 0.0------------
1994-07-31 28.1 36.1 18.5 15.6 46.3- 4.3 0.3---- 0.0------------
1994-07-30 27.8 35.7 16.4 13.7 47.0- 1.0 1.7---- 0.0------------
1994-07-29 27.1 35.2 13.9 11.3 44.0- 0.7 1.7---- 0.0------------
1994-07-28 25.6 33.7 14.4 12.4 47.5- 1.3 2.3---- 0.0------------
1994-07-27 25.7 33.4 14.5 11.6 48.0- 2.3 1.7---- 0.0------------
1994-07-26 24.8 32.2 12.7 10.1 53.8- 0.3 1.0---- 0.0------------
1994-07-25 24.4 31.3 14.9 10.8 44.8- 1.7 1.0---- 0.0------------
1994-07-24 23.8 30.6 15.4 11.6 49.5- 2.7 0.7---- 0.0------------
1994-07-23 22.1 28.7 9.8 8.6 58.0- 2.7 0.3---- 0.0------------
1994-07-22 19.9 25.6 9.5 6.9 65.8- 1.7 2.0---- 0.0------------
1994-07-21 20.7 28.3 8.1 6.6 57.8- 1.7 3.3---- 0.0------------
1994-07-20 17.7 24.7 9.1 6.1 61.3- 0.7 1.7---- 0.0------------
1994-07-19 17.4 22.5 9.8 7.5 62.0- 2.7 3.7---- 0.0------------
1994-07-18 19.1 24.5 14.1 14.1 69.0- 5.0 3.0---- 0.0------------
1994-07-17 21.4 26.6 15.1 13.0 69.8- 6.0 1.7---- 2.9------------
1994-07-16 22.4 31.3 13.5 11.2 66.0- 3.3 2.0---- 0.0------------
1994-07-15 23.8 30.5 15.9 12.2 60.8- 2.0 2.3---- 0.0------------
1994-07-14 24.7 31.0 17.7 15.1 59.8- 3.3 2.3---- 0.0------------
1994-07-13 24.9 30.5 17.1 13.1 56.8- 5.3 0.7---- 0.0------------
1994-07-12 23.3 29.5 14.9 12.1 61.3- 1.7 2.0---- 0.0------------
1994-07-11 22.4 28.2 13.9 11.6 60.0- 2.7 1.3---- 0.0------------
1994-07-10 19.3 26.7 12.2 10.1 74.3- 4.0 1.3---- 0.5------------
1994-07-09 14.3 17.4 11.8 11.5 89.3- 7.3 4.0---- 3.0------------
1994-07-08 15.3 23.1 13.2 9.4 80.3- 7.0 3.7---- 11.4------------
1994-07-07 19.4 26.2 10.5 8.1 54.0- 1.7 1.3---- 0.0------------
1994-07-06 18.8 25.7 10.5 8.6 64.8- 5.0 2.0---- 0.0------------
1994-07-05 18.3 24.4 9.8 7.5 57.8- 3.3 2.3---- 0.0------------
1994-07-04 19.8 26.4 9.4 6.6 55.8- 0.7 2.0---- 0.0------------
1994-07-03 17.4 24.5 5.9 3.2 58.0- 2.0 1.3---- 0.0------------
1994-07-02 17.0 23.7 8.9 6.2 59.8- 0.7 3.3---- 0.0------------
1994-07-01 16.8 23.5 7.7 4.8 67.8- 1.7 4.7---- 0.0------------
1994-06-30 21.1 27.1 18.8 17.2 71.0- 6.0 3.3---- 0.0------------
1994-06-29 23.3 29.9 14.1 11.6 67.8- 1.3 1.0---- 0.0------------
1994-06-28 21.1 27.5 11.3 9.4 67.5- 2.3 1.0---- 0.0------------
1994-06-27 21.9 28.7 13.4 11.6 68.5- 2.3 3.7---- 0.0------------
1994-06-26 21.1 29.7 9.3 5.4 60.8- 1.7 0.7---- 0.0------------
1994-06-25 14.9 23.0 3.8 1.6 67.8- 1.3 1.0---- 0.0------------
1994-06-24 13.6 18.9 8.9 7.6 56.8- 3.0 5.7---- 0.0------------
1994-06-23 14.8 20.0 11.3 10.6 58.5- 3.7 13.0---- 0.0------------
1994-06-22 17.2 24.4 10.1 7.6 72.5- 6.3 5.7---- 0.0------------
1994-06-21 14.4 21.4 4.6 3.0 66.8- 3.7 2.3---- 0.0------------
1994-06-20 14.2 18.1 11.8 10.6 66.3- 4.3 5.3---- 0.0------------
1994-06-19 13.4 15.3 11.6 10.4 88.8- 8.0 3.0---- 3.3------------
1994-06-18 11.7 17.9 1.9 -0.5 66.5- 5.7 3.0---- 3.8------------
1994-06-17 9.3 13.4 5.1 2.6 79.3- 6.3 3.0---- 1.7------------
1994-06-16 10.3 16.4 8.0 4.6 75.3- 6.7 5.7---- 1.9------------
266.7 ms

 

Źródłem pochodzenia danych jest Instytut Meteorologii i Gospodarki Wodnej – Państwowy Instytut Badawczy. Dane Instytutu Meteorologii i Gospodarki Wodnej – Państwowego Instytutu Badawczego zostały przetworzone.

Dane źródłowe można odnaleźć na stronie https://dane.imgw.pl